Time;durP1;ratioP1;P1;durP2;ratioP2;P2;SDS_P1;SDS_P2;PMS_P1;PMS_P2;Temp;Humidity;BMP_temperature;BMP_pressure;BME280_temperature;BME280_humidity;BME280_pressure;Samples;Min_cycle;Max_cycle;Signal;HPM_P1;HPM_P2
2022/01/22 00:00:52;;;;;;;1.60;1.50;;;22.60;43.70;;;;;;5054033;28;20207;-70
2022/01/22 00:03:18;;;;;;;1.30;1.20;;;22.60;43.70;;;;;;5038398;28;20183;-70
2022/01/22 00:05:45;;;;;;;1.15;1.08;;;22.70;43.80;;;;;;5019823;28;20205;-70
2022/01/22 00:08:11;;;;;;;1.40;1.30;;;22.70;43.80;;;;;;5019733;28;20233;-70
2022/01/22 00:10:41;;;;;;;1.30;1.20;;;22.60;43.70;;;;;;5036028;28;20213;-70
2022/01/22 00:14:23;;;;;;;1.55;1.35;;;22.60;43.70;;;;;;5036288;28;20352;-70
2022/01/22 00:15:53;;;;;;;1.45;1.35;;;22.60;43.70;;;;;;5035841;28;20182;-70
2022/01/22 00:18:19;;;;;;;1.65;1.10;;;22.70;43.80;;;;;;5036043;28;20194;-70
2022/01/22 00:20:46;;;;;;;1.55;1.38;;;22.70;43.80;;;;;;5035945;28;20211;-69
2022/01/22 00:23:16;;;;;;;1.33;1.23;;;22.70;43.80;;;;;;5019451;28;20185;-70
2022/01/22 00:25:42;;;;;;;1.40;1.30;;;22.70;43.80;;;;;;5035937;28;20178;-70
2022/01/22 00:28:07;;;;;;;1.52;1.20;;;22.60;43.70;;;;;;5053615;28;20195;-70
2022/01/22 00:30:34;;;;;;;1.50;1.40;;;22.60;43.70;;;;;;5035953;28;20209;-70
2022/01/22 00:33:02;;;;;;;1.42;1.33;;;22.60;43.70;;;;;;5019744;28;20186;-69
2022/01/22 00:35:27;;;;;;;1.20;1.10;;;22.60;43.70;;;;;;5035346;28;20249;-68
2022/01/22 00:37:54;;;;;;;1.00;1.00;;;22.60;43.70;;;;;;5036021;28;20185;-70
2022/01/22 00:40:21;;;;;;;0.90;0.90;;;22.60;43.70;;;;;;5035555;28;20210;-70
2022/01/22 00:42:49;;;;;;;0.90;0.90;;;22.60;43.70;;;;;;5019039;28;20199;-70
2022/01/22 00:45:18;;;;;;;1.15;1.05;;;22.60;43.70;;;;;;5018806;28;20183;-70
2022/01/22 00:47:45;;;;;;;1.13;1.02;;;22.70;43.80;;;;;;5035481;28;20174;-70
2022/01/22 00:50:14;;;;;;;1.60;1.27;;;22.60;43.70;;;;;;5035186;28;20226;-70
2022/01/22 00:52:41;;;;;;;1.00;1.00;;;22.70;43.80;;;;;;5035344;28;20650;-70
2022/01/22 00:55:08;;;;;;;1.15;1.08;;;22.70;43.80;;;;;;5019056;28;20585;-70
2022/01/22 00:57:34;;;;;;;1.10;1.00;;;22.70;43.80;;;;;;5018902;28;20217;-70
2022/01/22 01:00:00;;;;;;;1.05;1.00;;;22.60;43.70;;;;;;5035118;28;20206;-70
2022/01/22 01:02:26;;;;;;;1.45;1.35;;;22.60;43.70;;;;;;5019038;28;20265;-70
2022/01/22 01:04:52;;;;;;;1.25;1.15;;;22.70;43.80;;;;;;5018493;28;20308;-69
2022/01/22 01:07:18;;;;;;;1.00;0.90;;;22.70;43.80;;;;;;5035084;28;20187;-70
2022/01/22 01:09:44;;;;;;;1.35;1.25;;;22.70;43.80;;;;;;5018731;28;20230;-70
2022/01/22 01:12:12;;;;;;;1.33;1.23;;;22.70;44.40;;;;;;5018645;28;20198;-70
2022/01/22 01:15:05;;;;;;;1.10;1.10;;;22.60;43.70;;;;;;5034821;28;20200;-70
2022/01/22 01:33:58;;;;;;;0.98;0.98;;;22.70;43.80;;;;;;5034733;28;20604;-70
2022/01/22 01:36:24;;;;;;;0.88;0.88;;;22.60;43.70;;;;;;5034803;28;20197;-70
2022/01/22 01:38:54;;;;;;;1.33;1.23;;;22.60;43.70;;;;;;5034614;28;20279;-70
2022/01/22 01:41:50;;;;;;;1.15;1.10;;;22.60;43.70;;;;;;5018138;28;20207;-70
2022/01/22 01:44:10;;;;;;;1.77;1.10;;;22.60;43.70;;;;;;5033769;28;20186;-69
2022/01/22 01:47:03;;;;;;;1.33;1.20;;;22.60;43.70;;;;;;5020872;28;20232;-70
2022/01/22 01:49:32;;;;;;;1.38;0.95;;;22.60;43.70;;;;;;5018344;28;20587;-70
2022/01/22 01:52:02;;;;;;;1.20;1.10;;;22.70;43.80;;;;;;5018541;28;20650;-70
2022/01/22 01:59:47;;;;;;;1.08;0.98;;;22.60;43.70;;;;;;5034492;28;20213;-70
2022/01/22 02:02:21;;;;;;;0.80;0.80;;;22.70;43.80;;;;;;5034745;28;20181;-70
2022/01/22 02:04:47;;;;;;;0.80;0.80;;;22.70;43.80;;;;;;5034219;28;20214;-70
2022/01/22 02:07:13;;;;;;;1.13;0.90;;;22.70;43.80;;;;;;5034387;28;20190;-70
2022/01/22 02:09:45;;;;;;;0.82;0.82;;;22.70;43.80;;;;;;5018679;28;20221;-70
2022/01/22 02:26:09;;;;;;;0.95;0.90;;;22.60;43.70;;;;;;5014258;28;20182;-70
2022/01/22 02:28:46;;;;;;;0.80;0.80;;;22.70;43.80;;;;;;4999129;28;20221;-70
2022/01/22 02:31:31;;;;;;;0.75;0.75;;;22.60;43.70;;;;;;4998071;28;20249;-70
2022/01/22 02:36:45;;;;;;;0.95;0.88;;;22.70;43.80;;;;;;5014113;28;20171;-70
2022/01/22 02:39:18;;;;;;;1.25;1.10;;;22.70;43.80;;;;;;5014201;28;20636;-69
2022/01/22 02:41:48;;;;;;;1.15;1.05;;;22.60;43.70;;;;;;5014352;28;20175;-70
2022/01/22 02:44:32;;;;;;;1.02;0.95;;;22.70;43.80;;;;;;5014581;28;20237;-70
2022/01/22 02:46:59;;;;;;;0.80;0.80;;;22.70;43.80;;;;;;4998184;28;20179;-70
2022/01/22 02:49:25;;;;;;;1.15;1.05;;;22.70;43.80;;;;;;4998117;28;20230;-70
2022/01/22 02:51:51;;;;;;;1.00;1.00;;;22.70;43.80;;;;;;5014151;28;20187;-70
2022/01/22 02:54:17;;;;;;;0.80;0.80;;;22.60;43.70;;;;;;4998045;28;20175;-71
2022/01/22 02:56:43;;;;;;;0.90;0.90;;;22.70;43.80;;;;;;4997718;28;20187;-70
2022/01/22 02:59:09;;;;;;;0.93;0.93;;;22.70;43.80;;;;;;4999767;28;20237;-70
2022/01/22 03:01:35;;;;;;;0.80;0.80;;;22.60;43.70;;;;;;5001757;28;20175;-70
2022/01/22 03:04:01;;;;;;;1.20;1.08;;;22.60;43.70;;;;;;5017607;28;20257;-70
2022/01/22 03:06:27;;;;;;;0.90;0.90;;;22.60;43.70;;;;;;5001103;28;20229;-70
2022/01/22 03:08:52;;;;;;;1.00;1.00;;;22.70;44.40;;;;;;5017678;28;20215;-70
2022/01/22 03:11:30;;;;;;;1.55;1.00;;;22.70;43.80;;;;;;5035093;28;20199;-70
2022/01/22 03:16:51;;;;;;;0.70;0.70;;;22.60;43.70;;;;;;5017681;28;20183;-70
2022/01/22 03:20:09;;;;;;;1.17;1.08;;;22.60;43.70;;;;;;5037785;28;20673;-70
2022/01/22 03:22:25;;;;;;;0.85;0.73;;;22.60;43.70;;;;;;5024123;28;20205;-70
2022/01/22 03:27:35;;;;;;;0.77;0.77;;;22.60;43.70;;;;;;5027779;28;20176;-70
2022/01/22 03:30:05;;;;;;;0.95;0.95;;;22.60;43.70;;;;;;5002121;28;20219;-70
2022/01/22 03:32:37;;;;;;;1.02;0.93;;;22.60;43.70;;;;;;5019435;28;20179;-70
2022/01/22 03:35:44;;;;;;;1.83;1.10;;;22.60;43.70;;;;;;5033089;28;20624;-69
2022/01/22 03:37:58;;;;;;;0.80;0.80;;;22.60;43.70;;;;;;5014951;28;20199;-70
2022/01/22 03:40:29;;;;;;;0.90;0.90;;;22.60;43.70;;;;;;5042038;22;20227;-69
2022/01/22 03:42:55;;;;;;;0.85;0.85;;;22.60;43.70;;;;;;5017028;28;20209;-69
2022/01/22 03:45:24;;;;;;;0.85;0.80;;;22.60;43.70;;;;;;5033173;28;20553;-69
2022/01/22 03:47:50;;;;;;;1.10;1.00;;;22.60;43.70;;;;;;5017175;28;20191;-69
2022/01/22 03:50:19;;;;;;;0.80;0.80;;;22.60;43.70;;;;;;5009678;28;20212;-69
2022/01/22 03:52:45;;;;;;;0.90;0.90;;;22.60;43.70;;;;;;5013501;28;20184;-69
2022/01/22 03:55:23;;;;;;;1.27;1.00;;;22.60;43.70;;;;;;5013180;28;20180;-69
2022/01/22 03:58:07;;;;;;;1.23;0.82;;;22.60;43.70;;;;;;5013680;28;20175;-69
2022/01/22 04:00:36;;;;;;;0.70;0.70;;;22.60;43.80;;;;;;5013528;28;20299;-69
2022/01/22 04:03:27;;;;;;;0.95;0.90;;;22.60;43.80;;;;;;5013453;28;20215;-69
2022/01/22 04:08:45;;;;;;;0.80;0.80;;;22.60;43.70;;;;;;4997865;28;20227;-69
2022/01/22 04:11:14;;;;;;;1.00;0.90;;;22.60;43.70;;;;;;5028891;28;20208;-69
2022/01/22 04:13:40;;;;;;;0.90;0.90;;;22.60;43.70;;;;;;5029909;28;20180;-69
2022/01/22 04:16:08;;;;;;;0.80;0.80;;;22.60;43.70;;;;;;5013089;28;20226;-69
2022/01/22 04:26:55;;;;;;;0.90;0.90;;;22.60;43.70;;;;;;5029496;28;20191;-68
2022/01/22 04:29:23;;;;;;;0.90;0.90;;;22.60;43.70;;;;;;5029587;28;20216;-69
2022/01/22 04:31:49;;;;;;;1.58;0.70;;;22.60;43.70;;;;;;5029293;28;20196;-69
2022/01/22 04:34:15;;;;;;;1.30;1.20;;;22.60;43.70;;;;;;5012938;28;20184;-69
2022/01/22 04:36:42;;;;;;;1.00;0.90;;;22.60;43.70;;;;;;5012507;28;20184;-69
2022/01/22 04:39:08;;;;;;;0.95;0.85;;;22.60;43.70;;;;;;5012468;28;20215;-69
2022/01/22 04:41:34;;;;;;;0.98;0.90;;;22.60;43.70;;;;;;5029183;28;20215;-69
2022/01/22 04:44:03;;;;;;;0.88;0.80;;;22.60;43.70;;;;;;5028996;28;20188;-69
2022/01/22 04:49:14;;;;;;;0.93;0.90;;;22.60;43.70;;;;;;5029142;28;20212;-69
2022/01/22 04:57:10;;;;;;;1.30;1.15;;;22.60;43.70;;;;;;5029096;28;20184;-69
2022/01/22 04:59:36;;;;;;;0.80;0.80;;;22.60;43.80;;;;;;5028619;28;20191;-69
2022/01/22 05:02:02;;;;;;;1.42;0.90;;;22.60;43.70;;;;;;5012277;28;20195;-69
2022/01/22 05:04:51;;;;;;;1.00;1.00;;;22.60;43.70;;;;;;5006883;28;20255;-69
2022/01/22 05:07:37;;;;;;;0.75;0.75;;;22.60;43.70;;;;;;5012885;28;20223;-69
2022/01/22 05:10:10;;;;;;;1.20;1.10;;;22.60;43.70;;;;;;5011856;28;20230;-69
2022/01/22 05:12:37;;;;;;;1.25;1.13;;;22.60;43.70;;;;;;5028879;28;20168;-68
2022/01/22 05:15:05;;;;;;;1.20;1.00;;;22.60;43.70;;;;;;5012011;28;20272;-69
2022/01/22 05:17:34;;;;;;;1.17;1.10;;;22.60;43.70;;;;;;5028443;28;20187;-69
2022/01/22 05:20:13;;;;;;;1.50;1.20;;;22.60;43.70;;;;;;5028324;28;20211;-69
2022/01/22 05:25:09;;;;;;;0.73;0.73;;;22.60;43.70;;;;;;5028111;28;20280;-69
2022/01/22 05:30:47;;;;;;;0.65;0.65;;;22.60;43.70;;;;;;5028392;28;20254;-69
2022/01/22 05:38:55;;;;;;;1.42;1.33;;;22.60;43.80;;;;;;5028455;28;20195;-69
2022/01/22 05:41:22;;;;;;;1.85;1.15;;;22.60;43.70;;;;;;5011660;28;20572;-69
2022/01/22 05:43:47;;;;;;;0.90;0.90;;;22.60;43.70;;;;;;5012778;28;20203;-69
2022/01/22 05:46:13;;;;;;;1.08;0.93;;;22.60;43.70;;;;;;5011314;28;20556;-69
2022/01/22 05:48:40;;;;;;;1.00;0.95;;;22.60;44.40;;;;;;5012950;28;20295;-69
2022/01/22 05:51:07;;;;;;;1.02;1.00;;;22.60;43.80;;;;;;5011653;28;20299;-69
2022/01/22 05:53:50;;;;;;;1.00;1.00;;;22.60;43.80;;;;;;5011408;28;20266;-69
2022/01/22 06:01:45;;;;;;;1.30;1.20;;;22.60;43.70;;;;;;5027774;28;20207;-69
2022/01/22 06:04:16;;;;;;;1.30;1.20;;;22.60;43.70;;;;;;5012282;28;20274;-68
2022/01/22 06:06:42;;;;;;;1.13;1.05;;;22.60;43.70;;;;;;5027360;28;20289;-69
2022/01/22 06:09:10;;;;;;;1.40;1.30;;;22.60;43.80;;;;;;4996322;28;20204;-69
2022/01/22 06:11:54;;;;;;;1.33;1.13;;;22.60;43.70;;;;;;5011807;28;20207;-69
2022/01/22 06:14:24;;;;;;;1.00;0.88;;;22.60;43.70;;;;;;5012064;28;20246;-69
2022/01/22 06:16:50;;;;;;;0.95;0.90;;;22.60;43.70;;;;;;5011256;28;20191;-69
2022/01/22 06:19:31;;;;;;;1.02;1.00;;;22.60;43.70;;;;;;5013179;28;20279;-69
2022/01/22 06:21:57;;;;;;;1.58;1.17;;;22.60;43.70;;;;;;5011246;28;20270;-69
2022/01/22 06:24:24;;;;;;;1.15;1.10;;;22.60;43.70;;;;;;5027335;28;20184;-69
2022/01/22 06:26:51;;;;;;;1.10;1.00;;;22.60;43.70;;;;;;5011298;28;20251;-69
2022/01/22 06:29:18;;;;;;;1.00;0.90;;;22.60;43.70;;;;;;5010981;28;20698;-69
2022/01/22 06:31:44;;;;;;;1.45;1.20;;;22.60;43.70;;;;;;5011340;28;20208;-69
2022/01/22 06:34:10;;;;;;;1.17;1.05;;;22.60;43.70;;;;;;5013502;28;20263;-69
2022/01/22 06:36:38;;;;;;;1.13;1.10;;;22.60;43.70;;;;;;5014704;28;20218;-69
2022/01/22 06:39:16;;;;;;;1.40;1.30;;;22.60;43.70;;;;;;5014936;28;20184;-69
2022/01/22 06:42:00;;;;;;;1.58;1.48;;;22.60;43.70;;;;;;5015212;28;20180;-69
2022/01/22 06:44:34;;;;;;;1.30;1.20;;;22.60;43.70;;;;;;5016099;28;20561;-69
2022/01/22 06:47:20;;;;;;;1.00;1.00;;;22.60;43.70;;;;;;5014742;28;20195;-69
2022/01/22 06:49:59;;;;;;;1.02;1.02;;;22.60;43.70;;;;;;5014482;28;20258;-69
2022/01/22 06:52:44;;;;;;;1.40;1.30;;;22.60;43.70;;;;;;5015867;28;20187;-69
2022/01/22 06:55:20;;;;;;;1.35;1.25;;;22.60;43.70;;;;;;5014370;28;20644;-69
2022/01/22 06:57:46;;;;;;;1.50;1.40;;;22.60;43.70;;;;;;5014524;28;20219;-69
2022/01/22 07:00:23;;;;;;;2.42;1.40;;;22.50;43.70;;;;;;5014263;28;20211;-69
2022/01/22 07:02:58;;;;;;;1.52;1.42;;;22.60;43.70;;;;;;5014539;28;20184;-69
2022/01/22 07:05:25;;;;;;;1.90;1.42;;;22.60;43.70;;;;;;5014319;28;20187;-69
2022/01/22 07:08:20;;;;;;;1.25;1.10;;;22.60;43.70;;;;;;5007472;28;20195;-69
2022/01/22 07:10:51;;;;;;;1.30;1.20;;;22.60;43.70;;;;;;5014166;28;20261;-69
2022/01/22 07:13:17;;;;;;;1.45;1.13;;;22.60;43.70;;;;;;5014312;28;20179;-69
2022/01/22 07:15:44;;;;;;;1.33;1.10;;;22.60;43.70;;;;;;5014194;28;20184;-68
2022/01/22 07:18:16;;;;;;;1.15;1.10;;;22.60;43.70;;;;;;5014285;28;20188;-69
2022/01/22 07:20:44;;;;;;;1.50;1.40;;;22.60;43.70;;;;;;5014001;28;20208;-69
2022/01/22 07:25:52;;;;;;;1.40;1.30;;;22.60;43.70;;;;;;5013784;28;20184;-69
2022/01/22 07:28:50;;;;;;;1.70;1.48;;;22.60;43.80;;;;;;5003159;28;20251;-69
2022/01/22 07:31:20;;;;;;;1.35;1.25;;;22.60;43.70;;;;;;5013931;28;20239;-69
2022/01/22 07:33:47;;;;;;;0.95;0.95;;;22.60;43.70;;;;;;5014053;28;20275;-69
2022/01/22 07:36:13;;;;;;;2.35;1.30;;;22.60;43.70;;;;;;5013897;28;20251;-69
2022/01/22 07:38:39;;;;;;;1.58;1.48;;;22.60;43.70;;;;;;5013883;28;20187;-69
2022/01/22 07:41:09;;;;;;;1.08;1.08;;;22.60;43.70;;;;;;5014449;28;20220;-69
2022/01/22 07:43:39;;;;;;;1.67;1.48;;;22.60;43.70;;;;;;5013897;28;20184;-69
2022/01/22 07:46:23;;;;;;;1.30;1.20;;;22.60;43.70;;;;;;5012758;28;20180;-69
2022/01/22 07:48:54;;;;;;;1.55;1.45;;;22.60;43.70;;;;;;5014330;28;20204;-68
2022/01/22 07:51:25;;;;;;;1.73;1.63;;;22.60;43.70;;;;;;5013474;28;20235;-69
2022/01/22 07:53:51;;;;;;;1.90;1.60;;;22.60;43.70;;;;;;5013508;28;20207;-69
2022/01/22 07:56:22;;;;;;;1.70;1.60;;;22.60;43.70;;;;;;5013916;28;20271;-69
2022/01/22 07:58:48;;;;;;;1.90;1.80;;;22.60;43.70;;;;;;5013446;28;20187;-69
2022/01/22 08:01:15;;;;;;;1.95;1.85;;;22.60;43.70;;;;;;5013287;28;20208;-69
2022/01/22 08:04:07;;;;;;;1.45;1.35;;;22.60;43.70;;;;;;5013553;28;20566;-69
2022/01/22 08:06:53;;;;;;;1.45;1.35;;;22.60;43.70;;;;;;5013686;28;20175;-69
2022/01/22 08:09:37;;;;;;;1.30;1.20;;;22.60;43.70;;;;;;5013417;28;20203;-69
2022/01/22 08:12:20;;;;;;;2.00;1.80;;;22.60;43.70;;;;;;5013187;28;20172;-69
2022/01/22 08:14:47;;;;;;;2.03;1.83;;;22.60;43.70;;;;;;4996652;28;20304;-69
2022/01/22 08:17:13;;;;;;;1.65;1.55;;;22.60;43.70;;;;;;4993544;28;20181;-69
2022/01/22 08:19:39;;;;;;;1.88;1.70;;;22.60;43.70;;;;;;5004097;28;20183;-69
2022/01/22 08:22:28;;;;;;;1.88;1.77;;;22.60;43.70;;;;;;5026766;28;20198;-69
2022/01/22 08:25:13;;;;;;;1.70;1.60;;;22.60;43.70;;;;;;5013935;28;20670;-69
2022/01/22 08:28:52;;;;;;;1.80;1.40;;;22.60;43.70;;;;;;5013181;28;20600;-69
2022/01/22 08:30:33;;;;;;;1.50;1.40;;;22.60;43.70;;;;;;5012597;28;20310;-69
2022/01/22 08:35:53;;;;;;;2.28;2.00;;;22.60;43.70;;;;;;5029057;28;20180;-69
2022/01/22 08:38:25;;;;;;;3.40;2.58;;;22.60;43.70;;;;;;5012985;28;20179;-69
2022/01/22 08:40:51;;;;;;;2.78;2.30;;;22.60;43.70;;;;;;5029226;28;20212;-69
2022/01/22 08:43:18;;;;;;;2.58;2.38;;;22.60;43.70;;;;;;5012612;28;20219;-69
2022/01/22 08:45:49;;;;;;;1.98;1.88;;;22.60;43.70;;;;;;5028685;28;20184;-69
2022/01/22 08:48:18;;;;;;;3.33;2.90;;;22.60;43.70;;;;;;5012830;28;20203;-68
2022/01/22 08:50:46;;;;;;;2.13;1.92;;;22.60;43.70;;;;;;5028391;28;20245;-69
2022/01/22 08:53:11;;;;;;;2.13;1.92;;;22.60;43.70;;;;;;5012370;28;20215;-69
2022/01/22 08:55:38;;;;;;;2.55;2.35;;;22.60;43.70;;;;;;5012362;28;20184;-69
2022/01/22 08:58:05;;;;;;;2.00;1.90;;;22.60;43.70;;;;;;5011929;28;20278;-69
2022/01/22 09:00:51;;;;;;;2.22;2.05;;;22.60;43.70;;;;;;5006042;28;20212;-69
2022/01/22 09:03:23;;;;;;;2.40;2.20;;;22.60;43.70;;;;;;5012170;28;20271;-68
2022/01/22 09:06:25;;;;;;;3.47;2.45;;;22.60;43.70;;;;;;4972007;28;20201;-69
2022/01/22 09:09:11;;;;;;;2.63;2.42;;;22.60;43.70;;;;;;5009104;28;20314;-69
2022/01/22 09:11:53;;;;;;;2.38;2.25;;;22.60;43.70;;;;;;5013633;28;20561;-68
2022/01/22 09:14:51;;;;;;;2.05;1.95;;;22.60;43.70;;;;;;4999650;28;20191;-68
2022/01/22 09:17:19;;;;;;;2.28;2.00;;;22.70;43.80;;;;;;5028392;28;20176;-68
2022/01/22 09:19:47;;;;;;;2.88;2.22;;;22.60;43.70;;;;;;5028586;28;20208;-69
2022/01/22 09:22:15;;;;;;;2.42;2.10;;;22.60;43.70;;;;;;5012573;28;20179;-69
2022/01/22 09:24:46;;;;;;;2.08;1.98;;;22.60;43.70;;;;;;5012082;28;20581;-69
2022/01/22 09:27:14;;;;;;;2.33;2.13;;;22.70;43.80;;;;;;5012207;28;20238;-68
2022/01/22 09:29:40;;;;;;;2.67;2.42;;;22.70;43.80;;;;;;5011670;28;20211;-69
2022/01/22 09:32:06;;;;;;;2.22;2.00;;;22.60;43.70;;;;;;5028165;28;20396;-69
2022/01/22 09:34:51;;;;;;;2.70;2.50;;;22.70;43.80;;;;;;5011878;28;20215;-69
2022/01/22 09:37:37;;;;;;;1.90;1.67;;;22.60;43.70;;;;;;5025048;28;20620;-69
2022/01/22 09:40:16;;;;;;;1.83;1.73;;;22.70;43.80;;;;;;5011769;28;20298;-70
2022/01/22 09:43:06;;;;;;;2.20;2.00;;;22.60;44.30;;;;;;4998420;28;20180;-68
2022/01/22 09:45:53;;;;;;;2.50;2.30;;;22.70;43.80;;;;;;5014265;28;20208;-69
2022/01/22 09:48:26;;;;;;;2.53;2.33;;;22.70;43.80;;;;;;5011492;28;20184;-69
2022/01/22 09:51:08;;;;;;;2.03;1.90;;;22.70;43.80;;;;;;5027995;28;20212;-69
2022/01/22 09:54:02;;;;;;;2.20;2.00;;;22.70;43.80;;;;;;5011721;28;20230;-69
2022/01/22 09:56:46;;;;;;;2.20;1.88;;;22.70;43.80;;;;;;5012605;28;20762;-69
2022/01/22 09:59:24;;;;;;;1.80;1.70;;;22.80;44.40;;;;;;5011333;28;20266;-70
2022/01/22 10:02:16;;;;;;;2.80;2.60;;;22.70;44.20;;;;;;5012537;28;20559;-69
2022/01/22 10:04:48;;;;;;;2.17;2.00;;;22.80;44.30;;;;;;5011106;28;20172;-69
2022/01/22 10:07:26;;;;;;;2.60;2.40;;;22.80;44.30;;;;;;5011795;28;20702;-69
2022/01/22 10:10:10;;;;;;;1.90;1.80;;;22.80;44.20;;;;;;5016512;28;20223;-69
2022/01/22 10:12:51;;;;;;;2.15;1.95;;;22.70;44.10;;;;;;5015809;28;20638;-70
2022/01/22 10:15:35;;;;;;;1.90;1.80;;;22.80;44.20;;;;;;5017302;28;20605;-69
2022/01/22 10:18:07;;;;;;;1.90;1.80;;;22.80;44.00;;;;;;5015644;28;20180;-69
2022/01/22 10:20:40;;;;;;;2.35;1.80;;;22.80;44.00;;;;;;5015200;28;20627;-69
2022/01/22 10:23:26;;;;;;;2.25;2.05;;;22.80;43.90;;;;;;5015328;28;20234;-69
2022/01/22 10:26:02;;;;;;;3.08;2.42;;;22.70;44.00;;;;;;5031599;28;20235;-69
2022/01/22 10:28:48;;;;;;;2.58;2.20;;;22.70;43.90;;;;;;5014978;28;20192;-69
2022/01/22 10:31:25;;;;;;;1.80;1.70;;;22.70;43.90;;;;;;5014929;28;20223;-69
2022/01/22 10:34:13;;;;;;;2.22;2.03;;;22.80;44.00;;;;;;5015930;28;20191;-68
2022/01/22 10:37:00;;;;;;;1.83;1.73;;;22.80;43.90;;;;;;5009458;28;20251;-68
2022/01/22 10:39:44;;;;;;;2.17;2.08;;;22.80;43.90;;;;;;5009272;28;20195;-69
2022/01/22 10:42:25;;;;;;;3.22;2.10;;;22.80;43.90;;;;;;4995262;28;20636;-69
2022/01/22 10:44:59;;;;;;;2.10;2.00;;;22.70;43.80;;;;;;4994829;28;20172;-69
2022/01/22 10:47:26;;;;;;;2.05;1.85;;;22.80;43.90;;;;;;4995284;28;20211;-68
2022/01/22 10:49:51;;;;;;;2.05;1.80;;;22.70;43.90;;;;;;4994990;28;20323;-70
2022/01/22 10:52:18;;;;;;;2.20;1.92;;;22.70;43.90;;;;;;4995097;28;20281;-69
2022/01/22 10:54:46;;;;;;;1.70;1.60;;;22.80;44.00;;;;;;4995165;28;20196;-69
2022/01/22 10:57:23;;;;;;;1.70;1.60;;;22.70;43.90;;;;;;5011595;28;20189;-69
2022/01/22 10:59:55;;;;;;;2.00;1.90;;;22.80;43.90;;;;;;4995217;28;20259;-69
2022/01/22 11:02:37;;;;;;;1.70;1.60;;;22.80;43.90;;;;;;5052447;22;20250;-68
2022/01/22 11:05:05;;;;;;;1.90;1.80;;;22.80;43.90;;;;;;5052865;28;20698;-67
2022/01/22 11:07:31;;;;;;;1.90;1.80;;;22.80;44.10;;;;;;5049684;28;20706;-68
2022/01/22 11:09:57;;;;;;;2.30;2.05;;;22.80;44.40;;;;;;5033729;28;20202;-68
2022/01/22 11:12:23;;;;;;;2.17;2.00;;;22.80;44.30;;;;;;5022520;28;20611;-68
2022/01/22 11:14:49;;;;;;;2.83;2.30;;;22.80;44.20;;;;;;5013973;28;20318;-68
2022/01/22 11:17:15;;;;;;;2.28;2.08;;;22.70;44.10;;;;;;4998064;28;20278;-68
2022/01/22 11:19:46;;;;;;;2.30;2.13;;;22.80;44.20;;;;;;5030778;28;20218;-68
2022/01/22 11:22:15;;;;;;;2.40;2.20;;;22.80;44.10;;;;;;5030517;28;20214;-68
2022/01/22 11:24:50;;;;;;;2.40;2.20;;;22.80;44.10;;;;;;4997498;28;20234;-67
2022/01/22 11:27:21;;;;;;;1.95;1.85;;;22.80;44.20;;;;;;5030774;28;20172;-68
2022/01/22 11:29:57;;;;;;;1.60;1.50;;;22.70;44.00;;;;;;5014020;28;20219;-67
2022/01/22 11:32:42;;;;;;;1.70;1.60;;;22.80;44.10;;;;;;5014043;28;20216;-68
2022/01/22 11:35:10;;;;;;;1.92;1.83;;;22.80;44.00;;;;;;5030128;28;20176;-68
2022/01/22 11:37:47;;;;;;;1.70;1.60;;;22.80;44.00;;;;;;5014171;28;20230;-68
2022/01/22 11:40:26;;;;;;;2.05;1.95;;;22.80;44.10;;;;;;5030288;28;20211;-68
2022/01/22 11:43:23;;;;;;;2.15;2.05;;;22.80;44.10;;;;;;5013715;28;20203;-68
2022/01/22 11:45:54;;;;;;;2.28;2.10;;;22.80;44.00;;;;;;4997325;28;20184;-68
2022/01/22 11:48:30;;;;;;;1.70;1.60;;;22.70;44.00;;;;;;5013691;28;20531;-68
2022/01/22 11:51:25;;;;;;;1.70;1.60;;;22.80;44.10;;;;;;5013684;28;20172;-68
2022/01/22 11:53:56;;;;;;;2.47;1.80;;;22.80;44.00;;;;;;5030099;28;20180;-69
2022/01/22 11:56:27;;;;;;;2.15;1.90;;;22.80;44.10;;;;;;5029623;28;20238;-68
2022/01/22 11:58:56;;;;;;;2.35;1.90;;;22.70;44.00;;;;;;5013674;28;20180;-68
2022/01/22 12:01:50;;;;;;;2.25;2.15;;;22.70;44.00;;;;;;5013442;28;20220;-69
2022/01/22 12:04:20;;;;;;;2.65;2.45;;;22.70;44.10;;;;;;5014445;28;20203;-69
2022/01/22 12:07:09;;;;;;;2.30;2.10;;;22.70;44.10;;;;;;5029961;28;20196;-69
2022/01/22 12:15:35;;;;;;;2.22;2.03;;;22.80;44.10;;;;;;5029300;28;20319;-69
2022/01/22 12:18:03;;;;;;;2.22;2.03;;;22.80;44.10;;;;;;5012992;28;20188;-69
2022/01/22 12:20:43;;;;;;;2.20;2.05;;;22.80;44.20;;;;;;5027101;28;20234;-69
2022/01/22 12:23:17;;;;;;;2.33;2.13;;;22.80;44.20;;;;;;5016176;28;20597;-69
2022/01/22 12:25:42;;;;;;;2.22;1.52;;;22.80;44.10;;;;;;5049228;28;20186;-69
2022/01/22 12:28:11;;;;;;;1.80;1.70;;;22.80;44.20;;;;;;5033813;28;20191;-69
2022/01/22 12:30:45;;;;;;;1.45;1.40;;;22.70;44.10;;;;;;5015656;28;20211;-69
2022/01/22 12:33:27;;;;;;;1.80;1.70;;;22.80;44.20;;;;;;5032088;28;20206;-69
2022/01/22 12:35:58;;;;;;;1.90;1.77;;;22.80;44.20;;;;;;5032251;28;20179;-69
2022/01/22 12:38:35;;;;;;;1.60;1.50;;;22.80;44.10;;;;;;5015846;28;20186;-69
2022/01/22 12:46:51;;;;;;;1.80;1.70;;;22.80;44.10;;;;;;5033605;28;20258;-68
2022/01/22 12:49:19;;;;;;;1.70;1.60;;;22.80;44.20;;;;;;5026033;28;20262;-69
2022/01/22 12:51:45;;;;;;;1.80;1.70;;;22.70;44.10;;;;;;5028725;28;20233;-68
2022/01/22 12:54:11;;;;;;;1.92;1.52;;;22.80;44.20;;;;;;5032188;28;20670;-68
2022/01/22 12:56:51;;;;;;;1.90;1.80;;;22.80;44.30;;;;;;5032028;28;20274;-68
2022/01/22 12:59:18;;;;;;;2.25;1.80;;;22.80;44.10;;;;;;5048829;28;20190;-68
2022/01/22 13:01:46;;;;;;;1.58;1.48;;;22.80;44.10;;;;;;5048632;28;20269;-68
2022/01/22 13:04:13;;;;;;;1.70;1.60;;;22.80;44.10;;;;;;5031750;28;20195;-68
2022/01/22 13:06:55;;;;;;;2.40;2.20;;;22.80;44.10;;;;;;5021973;28;20187;-68
2022/01/22 13:09:47;;;;;;;2.50;2.05;;;22.80;44.00;;;;;;5013346;28;20313;-68
2022/01/22 13:12:13;;;;;;;2.10;1.98;;;22.80;44.20;;;;;;5013217;28;20218;-68
2022/01/22 13:14:39;;;;;;;1.98;1.83;;;22.80;44.10;;;;;;5011821;28;20180;-68
2022/01/22 13:17:13;;;;;;;1.80;1.70;;;22.70;44.10;;;;;;4995710;28;20633;-68
2022/01/22 13:19:39;;;;;;;1.42;1.33;;;22.80;44.20;;;;;;5012207;28;20180;-68
2022/01/22 13:22:06;;;;;;;1.70;1.60;;;22.80;44.20;;;;;;4995851;28;20223;-67
2022/01/22 13:24:35;;;;;;;1.50;1.40;;;22.80;44.10;;;;;;5011990;28;20188;-69
2022/01/22 13:27:12;;;;;;;1.60;1.50;;;22.80;44.20;;;;;;5012201;28;20198;-68
2022/01/22 13:29:53;;;;;;;1.85;1.75;;;22.80;44.20;;;;;;4995723;28;20211;-68
2022/01/22 13:49:18;;;;;;;1.90;1.80;;;22.80;44.20;;;;;;5011837;28;20218;-68
2022/01/22 13:51:45;;;;;;;2.42;2.05;;;22.80;44.20;;;;;;5011460;28;20215;-68
2022/01/22 13:54:12;;;;;;;2.00;1.90;;;22.80;44.20;;;;;;4995307;28;20184;-68
2022/01/22 13:56:51;;;;;;;2.63;2.10;;;22.80;44.20;;;;;;4994993;28;20184;-68
2022/01/22 13:59:28;;;;;;;1.70;1.60;;;22.80;44.20;;;;;;5011533;28;20184;-68
2022/01/22 14:05:03;;;;;;;1.50;1.40;;;22.80;44.20;;;;;;5011176;28;20211;-68
2022/01/22 14:07:34;;;;;;;1.60;1.50;;;22.80;44.20;;;;;;5031367;28;20186;-68
2022/01/22 14:10:13;;;;;;;2.30;2.20;;;22.80;44.20;;;;;;5051210;28;20267;-68
2022/01/22 14:12:45;;;;;;;3.55;3.25;;;22.80;44.30;;;;;;5050906;28;20207;-68
2022/01/22 14:15:36;;;;;;;3.05;2.85;;;22.80;44.30;;;;;;5050854;28;20221;-69
2022/01/22 14:18:14;;;;;;;2.00;1.90;;;22.80;44.30;;;;;;5050989;28;20634;-68
2022/01/22 14:20:52;;;;;;;2.10;2.00;;;22.80;44.30;;;;;;5043678;28;20270;-68
2022/01/22 14:23:19;;;;;;;2.10;2.00;;;22.80;44.30;;;;;;5010913;28;20203;-68
2022/01/22 14:26:15;;;;;;;2.08;1.98;;;22.80;44.30;;;;;;5011142;28;20203;-68
2022/01/22 14:28:48;;;;;;;2.38;2.20;;;22.80;44.30;;;;;;5011135;28;20647;-68
2022/01/22 14:31:33;;;;;;;2.53;2.33;;;22.80;44.30;;;;;;4995100;28;20175;-68
2022/01/22 14:34:07;;;;;;;2.60;2.40;;;22.80;44.30;;;;;;5026946;28;20191;-68
2022/01/22 14:36:49;;;;;;;2.10;2.00;;;22.80;44.30;;;;;;5030648;28;20171;-68
2022/01/22 14:44:51;;;;;;;5.28;4.65;;;22.80;44.30;;;;;;5030638;28;20234;-68
2022/01/22 14:47:28;;;;;;;4.43;4.03;;;22.80;44.30;;;;;;5030847;28;20176;-68
2022/01/22 14:50:07;;;;;;;4.32;4.00;;;22.70;44.20;;;;;;5014668;28;20211;-68
2022/01/22 14:52:34;;;;;;;3.67;3.38;;;22.80;44.30;;;;;;5030842;28;20195;-68
2022/01/22 14:55:04;;;;;;;3.90;3.60;;;22.70;44.30;;;;;;5032334;28;20237;-68
2022/01/22 14:57:37;;;;;;;4.35;3.08;;;22.70;44.20;;;;;;5034380;28;20634;-68
2022/01/22 15:00:08;;;;;;;3.58;3.38;;;22.70;44.30;;;;;;5034639;28;20274;-68
2022/01/22 15:02:37;;;;;;;3.38;3.15;;;22.70;44.30;;;;;;5034167;28;20215;-68
2022/01/22 15:05:09;;;;;;;3.13;2.92;;;22.70;44.20;;;;;;5025715;28;20279;-68
2022/01/22 15:07:36;;;;;;;3.05;2.85;;;22.70;44.30;;;;;;5014485;28;20180;-68
2022/01/22 15:10:05;;;;;;;3.28;2.97;;;22.70;44.30;;;;;;5014202;28;20735;-69
2022/01/22 15:12:30;;;;;;;3.70;3.20;;;22.70;44.20;;;;;;5015519;28;20204;-68
2022/01/22 15:14:56;;;;;;;3.20;3.00;;;22.70;44.30;;;;;;5014212;28;20555;-69
2022/01/22 15:19:50;;;;;;;3.85;3.55;;;22.70;44.30;;;;;;5014158;28;20214;-68
2022/01/22 15:22:17;;;;;;;3.20;3.00;;;22.70;44.30;;;;;;5014041;28;20204;-69